Time;durP1;ratioP1;P1;durP2;ratioP2;P2;SDS_P1;SDS_P2;PMS_P1;PMS_P2;Temp;Humidity;BMP_temperature;BMP_pressure;BME280_temperature;BME280_humidity;BME280_pressure;Samples;Min_cycle;Max_cycle;Signal;HPM_P1;HPM_P2
2022/09/05 00:02:01;;;;;;;3.10;2.77;;;17.80;99.90;;;;;;5032403;28;20920;-73
2022/09/05 00:04:36;;;;;;;2.93;2.40;;;17.70;99.90;;;;;;5031827;28;20446;-73
2022/09/05 00:07:17;;;;;;;3.80;2.30;;;17.70;99.90;;;;;;5032380;28;20249;-74
2022/09/05 00:09:55;;;;;;;2.10;1.77;;;17.70;99.90;;;;;;5032326;28;20425;-74
2022/09/05 00:12:21;;;;;;;4.23;2.70;;;17.70;99.90;;;;;;5032228;28;20464;-73
2022/09/05 00:15:22;;;;;;;2.93;2.23;;;17.70;99.90;;;;;;5031695;28;21012;-74
2022/09/05 00:18:09;;;;;;;1.60;1.40;;;17.60;99.90;;;;;;5031907;28;20418;-74
2022/09/05 00:21:16;;;;;;;2.47;2.27;;;17.60;99.90;;;;;;5032288;28;20461;-74
2022/09/05 00:23:58;;;;;;;2.70;2.50;;;17.60;99.90;;;;;;5031758;28;21200;-73
2022/09/05 00:26:46;;;;;;;2.30;2.10;;;17.50;99.90;;;;;;5031777;28;20482;-74
2022/09/05 00:29:38;;;;;;;2.87;2.03;;;17.50;99.90;;;;;;5032219;28;20406;-73
2022/09/05 00:32:13;;;;;;;4.50;2.70;;;17.50;99.90;;;;;;5031849;28;20413;-73
2022/09/05 00:34:52;;;;;;;3.90;2.23;;;17.50;99.90;;;;;;5031402;28;20537;-73
2022/09/05 00:37:42;;;;;;;2.80;2.37;;;17.50;99.90;;;;;;5031949;28;20994;-73
2022/09/05 00:40:18;;;;;;;2.10;1.80;;;17.40;99.90;;;;;;5031915;28;20815;-73
2022/09/05 00:42:47;;;;;;;5.37;2.40;;;17.30;99.90;;;;;;5031962;28;20509;-73
2022/09/05 00:45:19;;;;;;;4.47;2.30;;;17.30;99.90;;;;;;5029940;28;20442;-73
2022/09/05 00:47:51;;;;;;;3.00;2.57;;;17.20;99.90;;;;;;5031927;28;20410;-73
2022/09/05 00:50:32;;;;;;;3.70;2.60;;;17.10;99.90;;;;;;5031751;28;20516;-73
2022/09/05 00:53:17;;;;;;;3.50;3.10;;;17.20;99.90;;;;;;5031832;28;20417;-74
2022/09/05 00:56:00;;;;;;;3.73;3.23;;;17.10;99.90;;;;;;5011984;28;20419;-73
2022/09/05 00:58:25;;;;;;;5.70;3.00;;;17.10;99.90;;;;;;5012083;28;20446;-73
2022/09/05 01:00:53;;;;;;;5.47;3.57;;;17.00;99.90;;;;;;5011964;28;20490;-74
2022/09/05 01:03:58;;;;;;;4.63;3.40;;;17.00;99.90;;;;;;5011140;28;20657;-73
2022/09/05 01:07:02;;;;;;;4.50;3.70;;;17.00;99.90;;;;;;5030625;28;20413;-73
2022/09/05 01:10:02;;;;;;;5.47;3.67;;;17.10;99.90;;;;;;5035725;28;20409;-74
2022/09/05 01:12:33;;;;;;;3.60;2.50;;;17.10;99.90;;;;;;5034882;28;20513;-73
2022/09/05 01:15:38;;;;;;;3.30;2.87;;;17.00;99.90;;;;;;5035092;28;20537;-73
2022/09/05 01:18:46;;;;;;;6.77;3.37;;;17.00;99.90;;;;;;5035698;28;20438;-74
2022/09/05 01:21:48;;;;;;;2.83;2.53;;;17.00;99.90;;;;;;5035272;28;20809;-73
2022/09/05 01:24:34;;;;;;;3.33;2.37;;;16.90;99.90;;;;;;5034900;28;20433;-74
2022/09/05 01:27:37;;;;;;;4.00;3.07;;;16.90;99.90;;;;;;5035205;28;20401;-74
2022/09/05 01:30:12;;;;;;;3.53;2.50;;;16.80;99.90;;;;;;5035184;28;20440;-73
2022/09/05 01:32:52;;;;;;;3.60;2.77;;;16.80;99.90;;;;;;5035157;28;20749;-73
2022/09/05 01:35:26;;;;;;;3.70;2.43;;;16.70;99.90;;;;;;5034773;28;20981;-73
2022/09/05 01:38:05;;;;;;;8.83;2.73;;;16.60;99.90;;;;;;5035023;28;20401;-73
2022/09/05 01:41:02;;;;;;;3.10;2.17;;;16.60;99.90;;;;;;5035015;28;20491;-74
2022/09/05 01:43:50;;;;;;;2.43;2.23;;;16.60;99.90;;;;;;5034655;28;20438;-73
2022/09/05 01:46:58;;;;;;;3.53;2.77;;;16.60;99.90;;;;;;5034832;28;20747;-73
2022/09/05 01:49:52;;;;;;;3.80;2.50;;;16.70;99.90;;;;;;5034097;28;20418;-74
2022/09/05 01:52:53;;;;;;;4.83;3.23;;;16.70;99.90;;;;;;5034865;28;20461;-74
2022/09/05 01:55:39;;;;;;;4.67;3.00;;;16.70;99.90;;;;;;5017496;28;20454;-73
2022/09/05 01:58:20;;;;;;;3.10;2.80;;;16.70;99.90;;;;;;5014689;28;20399;-73
2022/09/05 02:01:09;;;;;;;2.93;2.40;;;16.60;99.90;;;;;;5014998;28;20820;-73
2022/09/05 02:04:12;;;;;;;3.40;2.63;;;16.60;99.90;;;;;;5016244;28;20443;-73
2022/09/05 02:06:57;;;;;;;4.90;3.40;;;16.60;99.90;;;;;;5033096;28;20463;-73
2022/09/05 02:09:47;;;;;;;3.63;2.53;;;16.50;99.90;;;;;;5034454;28;20402;-73
2022/09/05 02:12:45;;;;;;;4.13;2.80;;;16.50;99.90;;;;;;5034350;28;20406;-73
2022/09/05 02:15:39;;;;;;;3.83;2.70;;;16.40;99.90;;;;;;5032519;28;20521;-73
2022/09/05 02:18:13;;;;;;;7.73;3.60;;;16.40;99.90;;;;;;5032140;28;20488;-73
2022/09/05 02:20:53;;;;;;;3.40;2.60;;;16.30;99.90;;;;;;5034140;28;20864;-73
2022/09/05 02:23:36;;;;;;;4.40;3.00;;;16.20;99.90;;;;;;5034172;28;20406;-73
2022/09/05 02:26:09;;;;;;;6.30;3.40;;;16.20;99.90;;;;;;5033886;28;20406;-73
2022/09/05 02:28:56;;;;;;;9.10;3.00;;;16.20;99.90;;;;;;5034194;28;20430;-73
2022/09/05 02:31:51;;;;;;;3.83;3.00;;;16.20;99.90;;;;;;5034018;28;20959;-73
2022/09/05 02:34:35;;;;;;;2.50;2.30;;;16.10;99.90;;;;;;5033458;28;20438;-73
2022/09/05 02:37:38;;;;;;;3.63;2.60;;;16.20;99.90;;;;;;5033951;28;20394;-73
2022/09/05 02:40:38;;;;;;;2.33;2.10;;;16.10;99.90;;;;;;5033725;28;20453;-73
2022/09/05 02:43:32;;;;;;;2.67;2.17;;;16.10;99.90;;;;;;5033847;28;20399;-73
2022/09/05 02:46:10;;;;;;;4.57;2.60;;;16.10;99.90;;;;;;5033444;28;20418;-74
2022/09/05 02:48:59;;;;;;;3.87;2.50;;;16.00;99.90;;;;;;5033717;28;20489;-73
2022/09/05 02:51:39;;;;;;;2.40;2.03;;;16.00;99.90;;;;;;5033576;28;20464;-73
2022/09/05 02:54:11;;;;;;;3.00;2.13;;;16.00;99.90;;;;;;5033270;28;20437;-73
2022/09/05 02:56:44;;;;;;;2.60;1.80;;;16.00;99.90;;;;;;5032336;28;20398;-73
2022/09/05 02:59:47;;;;;;;5.73;5.03;;;16.00;99.90;;;;;;5033586;28;20446;-73
2022/09/05 03:02:28;;;;;;;2.60;2.07;;;16.00;99.90;;;;;;5033452;28;20398;-73
2022/09/05 03:05:17;;;;;;;4.70;2.10;;;16.00;99.90;;;;;;5032929;28;20429;-73
2022/09/05 03:08:04;;;;;;;18.73;10.30;;;15.90;99.90;;;;;;5032607;28;20418;-74
2022/09/05 03:11:14;;;;;;;4.40;3.00;;;15.90;99.90;;;;;;5033286;28;20765;-73
2022/09/05 03:13:55;;;;;;;6.50;4.87;;;15.90;99.90;;;;;;5032721;28;20429;-73
2022/09/05 03:16:42;;;;;;;2.60;2.07;;;15.90;99.90;;;;;;5033019;28;20877;-73
2022/09/05 03:19:26;;;;;;;3.67;2.37;;;15.90;99.90;;;;;;5032711;28;20449;-73
2022/09/05 03:22:20;;;;;;;4.83;2.03;;;15.80;99.90;;;;;;5032704;28;20791;-73
2022/09/05 03:25:10;;;;;;;2.90;2.13;;;15.80;99.90;;;;;;5032695;28;20848;-74
2022/09/05 03:27:36;;;;;;;2.20;2.00;;;15.80;99.90;;;;;;5032965;28;20510;-74
2022/09/05 03:30:14;;;;;;;4.43;2.50;;;15.80;99.90;;;;;;5032785;28;20812;-74
2022/09/05 03:32:58;;;;;;;2.50;2.10;;;15.70;99.90;;;;;;5012062;28;20965;-73
2022/09/05 03:35:58;;;;;;;2.87;2.37;;;15.70;99.90;;;;;;5011712;28;20427;-74
2022/09/05 03:38:32;;;;;;;2.50;2.13;;;15.70;99.90;;;;;;5013035;28;20400;-74
2022/09/05 03:41:14;;;;;;;4.30;2.50;;;15.60;99.90;;;;;;5019380;28;21047;-73
2022/09/05 03:44:12;;;;;;;2.43;1.93;;;15.60;99.90;;;;;;5032763;28;20414;-73
2022/09/05 03:46:57;;;;;;;2.93;1.90;;;15.50;99.90;;;;;;5032501;28;20407;-73
2022/09/05 03:49:41;;;;;;;5.80;2.87;;;15.50;99.90;;;;;;5031581;28;20456;-73
2022/09/05 03:52:35;;;;;;;3.07;2.40;;;15.50;99.90;;;;;;5032309;28;20422;-73
2022/09/05 03:55:21;;;;;;;5.30;2.47;;;15.40;99.90;;;;;;5032316;28;20422;-74
2022/09/05 03:57:58;;;;;;;3.63;2.37;;;15.40;99.90;;;;;;5032552;28;20398;-73
2022/09/05 04:00:29;;;;;;;2.70;2.20;;;15.30;99.90;;;;;;5032200;28;20805;-73
2022/09/05 04:03:28;;;;;;;2.73;2.30;;;15.30;99.90;;;;;;5032301;28;20421;-73
2022/09/05 04:06:15;;;;;;;3.67;2.30;;;15.30;99.90;;;;;;5031836;28;20419;-73
2022/09/05 04:08:49;;;;;;;3.50;2.73;;;15.20;99.90;;;;;;5032339;28;20390;-73
2022/09/05 04:11:38;;;;;;;2.33;2.13;;;15.30;99.90;;;;;;5032166;28;20420;-73
2022/09/05 04:14:08;;;;;;;2.87;2.53;;;15.20;99.90;;;;;;5032269;28;20423;-73
2022/09/05 04:17:09;;;;;;;3.63;2.20;;;15.20;99.90;;;;;;5032028;28;20887;-73
2022/09/05 04:19:47;;;;;;;2.50;2.10;;;15.10;99.90;;;;;;5030123;28;20889;-73
2022/09/05 04:22:33;;;;;;;4.57;2.47;;;15.10;99.90;;;;;;5031736;28;20923;-73
2022/09/05 04:25:11;;;;;;;4.67;2.83;;;15.20;99.90;;;;;;5031766;28;20798;-73
2022/09/05 04:27:51;;;;;;;7.60;3.30;;;15.20;99.90;;;;;;5030640;28;20417;-72
2022/09/05 04:30:38;;;;;;;3.20;2.90;;;15.10;99.90;;;;;;5032136;28;20426;-73
2022/09/05 04:33:18;;;;;;;3.03;2.70;;;15.10;99.90;;;;;;5012279;28;20403;-73
2022/09/05 04:36:05;;;;;;;4.27;2.80;;;15.10;99.90;;;;;;5012243;28;20399;-73
2022/09/05 04:38:37;;;;;;;4.80;2.53;;;15.10;99.90;;;;;;5012171;28;20403;-73
2022/09/05 04:41:15;;;;;;;5.13;3.10;;;15.20;99.90;;;;;;5018125;28;20453;-73
2022/09/05 04:43:43;;;;;;;3.93;2.40;;;15.10;99.90;;;;;;5036152;28;20915;-72
2022/09/05 04:46:30;;;;;;;5.57;3.00;;;15.10;99.90;;;;;;5035470;28;20903;-73
2022/09/05 04:49:21;;;;;;;3.50;2.43;;;15.20;99.90;;;;;;5036174;28;20468;-72
2022/09/05 04:52:05;;;;;;;2.80;2.40;;;15.20;99.90;;;;;;5035266;28;21024;-73
2022/09/05 04:54:34;;;;;;;6.13;4.03;;;15.10;99.90;;;;;;5015748;28;20429;-73
2022/09/05 04:57:23;;;;;;;4.37;3.23;;;15.10;99.90;;;;;;5016059;28;20399;-73
2022/09/05 04:59:55;;;;;;;4.40;3.13;;;15.20;99.90;;;;;;5016023;28;20457;-73
2022/09/05 05:02:44;;;;;;;5.37;3.10;;;15.20;99.90;;;;;;5035113;28;20422;-73
2022/09/05 05:05:21;;;;;;;4.57;3.90;;;15.20;99.90;;;;;;5034118;28;20797;-73
2022/09/05 05:08:22;;;;;;;4.50;3.70;;;15.10;99.90;;;;;;5035668;28;20382;-74
2022/09/05 05:10:56;;;;;;;3.77;2.93;;;15.10;99.90;;;;;;5034628;28;20416;-73
2022/09/05 05:13:30;;;;;;;3.40;3.10;;;15.00;99.90;;;;;;5035582;28;21014;-74
2022/09/05 05:16:00;;;;;;;6.40;4.07;;;15.00;99.90;;;;;;5035205;28;20412;-73
2022/09/05 05:18:32;;;;;;;6.87;4.33;;;15.10;99.90;;;;;;5035504;28;20476;-73
2022/09/05 05:21:08;;;;;;;6.67;4.70;;;15.20;99.90;;;;;;5035139;28;20834;-73
2022/09/05 05:23:37;;;;;;;9.30;4.90;;;15.30;99.90;;;;;;5035353;28;20426;-73
2022/09/05 05:26:09;;;;;;;6.37;4.03;;;15.30;99.90;;;;;;5035186;28;20402;-73
2022/09/05 05:28:40;;;;;;;6.30;5.00;;;15.40;99.90;;;;;;5035286;28;20398;-73
2022/09/05 05:31:15;;;;;;;6.93;4.20;;;15.50;99.90;;;;;;5034944;28;20425;-73
2022/09/05 05:33:46;;;;;;;15.00;5.10;;;15.50;99.90;;;;;;5035133;28;20421;-73
2022/09/05 05:36:27;;;;;;;7.13;4.80;;;15.60;99.90;;;;;;5033239;28;20418;-73
2022/09/05 05:38:59;;;;;;;6.47;5.23;;;15.70;99.90;;;;;;5034958;28;20410;-73
2022/09/05 05:41:52;;;;;;;6.97;4.73;;;15.90;99.90;;;;;;5034901;28;20419;-73
2022/09/05 05:44:25;;;;;;;6.63;5.93;;;16.10;99.90;;;;;;5034211;28;20434;-73
2022/09/05 05:47:01;;;;;;;7.47;4.80;;;16.20;99.90;;;;;;5035043;28;20740;-73
2022/09/05 05:49:49;;;;;;;8.13;5.50;;;16.40;99.90;;;;;;5050167;28;20491;-73
2022/09/05 05:52:52;;;;;;;10.40;4.57;;;16.50;99.90;;;;;;5033103;28;20475;-73
2022/09/05 05:55:36;;;;;;;5.37;4.83;;;16.60;99.90;;;;;;5034550;28;20414;-73
2022/09/05 05:58:27;;;;;;;5.43;3.83;;;16.80;99.90;;;;;;5034794;28;20903;-73
2022/09/05 06:01:11;;;;;;;16.23;5.47;;;16.90;99.90;;;;;;5034320;28;20493;-74
2022/09/05 06:04:02;;;;;;;5.10;3.60;;;17.00;99.90;;;;;;5034511;28;20456;-73
2022/09/05 06:07:00;;;;;;;4.43;4.00;;;17.30;99.90;;;;;;5034285;28;20414;-73
2022/09/05 06:09:49;;;;;;;9.90;4.73;;;17.70;99.90;;;;;;5034431;28;20930;-73
2022/09/05 06:12:52;;;;;;;3.77;3.43;;;17.90;99.90;;;;;;5034241;28;20433;-73
2022/09/05 06:15:53;;;;;;;4.83;3.70;;;18.10;99.90;;;;;;5034002;28;20426;-73
2022/09/05 06:18:27;;;;;;;4.50;3.47;;;18.80;99.90;;;;;;5032210;28;21033;-74
2022/09/05 06:21:25;;;;;;;5.80;3.90;;;19.30;99.90;;;;;;5029671;28;21005;-74
2022/09/05 06:24:17;;;;;;;6.43;3.97;;;20.10;99.90;;;;;;5033965;28;20989;-74
2022/09/05 06:26:52;;;;;;;6.00;2.87;;;20.70;99.90;;;;;;5034090;28;20402;-74
2022/09/05 06:29:30;;;;;;;4.27;3.40;;;21.40;99.90;;;;;;5034112;28;20448;-73
2022/09/05 06:32:14;;;;;;;7.13;3.00;;;22.00;99.90;;;;;;5033998;28;20934;-73
2022/09/05 06:35:00;;;;;;;3.17;2.73;;;22.40;99.90;;;;;;5033711;28;20418;-73
2022/09/05 06:37:59;;;;;;;4.23;2.77;;;22.90;99.90;;;;;;5034077;28;20974;-73
2022/09/05 06:40:31;;;;;;;4.93;3.20;;;23.40;99.90;;;;;;5033802;28;20454;-73
2022/09/05 06:43:43;;;;;;;4.00;2.80;;;23.70;99.90;;;;;;5033801;28;20895;-73
2022/09/05 06:46:25;;;;;;;3.67;3.10;;;23.70;99.90;;;;;;5012558;28;20844;-74
2022/09/05 06:49:17;;;;;;;2.63;2.40;;;23.60;99.90;;;;;;5014256;28;20399;-73
2022/09/05 06:52:07;;;;;;;3.10;2.90;;;23.10;99.90;;;;;;5013270;28;20498;-73
2022/09/05 06:54:41;;;;;;;4.77;3.97;;;22.70;99.90;;;;;;5023408;28;20470;-74
2022/09/05 06:57:31;;;;;;;3.50;2.97;;;22.30;99.90;;;;;;5033413;28;20746;-74
2022/09/05 07:00:17;;;;;;;4.10;2.97;;;21.80;99.90;;;;;;5033385;28;20446;-74
2022/09/05 07:03:00;;;;;;;4.60;3.90;;;21.60;99.90;;;;;;5033526;28;20398;-74
2022/09/05 07:05:46;;;;;;;6.20;3.73;;;21.40;99.90;;;;;;5032319;28;20438;-74
2022/09/05 07:08:25;;;;;;;3.00;2.60;;;21.50;99.90;;;;;;5032117;28;20414;-74
2022/09/05 07:11:03;;;;;;;3.57;3.03;;;21.60;99.90;;;;;;5033358;28;20770;-73
2022/09/05 07:13:37;;;;;;;3.10;2.80;;;21.70;99.90;;;;;;5033048;28;20772;-73
2022/09/05 07:16:10;;;;;;;5.53;2.63;;;21.80;99.90;;;;;;5033089;28;20409;-73
2022/09/05 07:19:04;;;;;;;3.03;2.83;;;22.10;99.90;;;;;;5033147;28;20403;-74
2022/09/05 07:21:41;;;;;;;3.97;2.97;;;23.00;99.90;;;;;;5033259;28;20415;-74
2022/09/05 07:24:11;;;;;;;4.10;2.90;;;24.20;99.90;;;;;;5032803;28;20430;-75
2022/09/05 07:26:44;;;;;;;4.27;3.03;;;25.30;99.90;;;;;;5032825;28;20398;-74
2022/09/05 07:29:18;;;;;;;2.63;2.10;;;26.10;99.90;;;;;;5031716;28;20394;-74
2022/09/05 07:31:50;;;;;;;3.20;2.90;;;26.90;99.90;;;;;;5031527;28;20759;-74
2022/09/05 07:34:25;;;;;;;4.80;2.40;;;27.80;99.90;;;;;;5031884;28;20441;-75
2022/09/05 07:36:55;;;;;;;5.93;3.80;;;28.60;99.90;;;;;;5032217;28;20398;-74
2022/09/05 07:39:27;;;;;;;3.50;2.90;;;28.90;94.60;;;;;;5032196;28;20537;-74
2022/09/05 07:41:56;;;;;;;6.83;3.30;;;28.50;92.60;;;;;;5032300;28;20407;-74
2022/09/05 07:44:30;;;;;;;7.67;3.70;;;27.80;96.50;;;;;;5031601;28;20449;-75
2022/09/05 07:47:05;;;;;;;3.43;2.77;;;27.20;99.90;;;;;;5032522;28;20398;-74
2022/09/05 07:49:34;;;;;;;3.60;2.80;;;26.90;99.90;;;;;;5032263;28;20394;-75
2022/09/05 07:52:06;;;;;;;4.80;2.57;;;26.70;99.90;;;;;;5031046;28;20437;-74
2022/09/05 07:54:35;;;;;;;4.80;2.77;;;26.80;99.90;;;;;;5031756;28;20442;-74
2022/09/05 07:57:04;;;;;;;3.07;2.77;;;26.80;99.90;;;;;;5032312;28;20986;-74
2022/09/05 07:59:33;;;;;;;2.77;2.50;;;26.60;99.90;;;;;;5032102;28;20846;-74
2022/09/05 08:02:00;;;;;;;5.67;3.47;;;26.30;99.90;;;;;;5031990;28;20406;-74
2022/09/05 08:04:30;;;;;;;4.07;2.90;;;26.00;99.90;;;;;;5031028;28;20434;-74
2022/09/05 08:06:59;;;;;;;3.33;2.47;;;26.00;99.90;;;;;;5032118;28;20485;-75
2022/09/05 08:09:30;;;;;;;4.67;2.43;;;26.30;99.90;;;;;;5032189;28;20402;-74
2022/09/05 08:12:03;;;;;;;5.47;2.63;;;27.10;99.90;;;;;;5031995;28;20409;-73
2022/09/05 08:15:13;;;;;;;3.07;2.70;;;28.00;99.90;;;;;;5031465;28;20499;-75
2022/09/05 08:18:05;;;;;;;3.53;2.20;;;28.90;96.40;;;;;;5031838;28;20410;-75
2022/09/05 08:21:02;;;;;;;3.23;2.97;;;29.60;88.10;;;;;;5031412;28;20450;-75
2022/09/05 08:23:33;;;;;;;2.90;2.47;;;30.00;83.70;;;;;;5031422;28;20489;-75
2022/09/05 08:26:12;;;;;;;2.80;2.10;;;30.90;75.20;;;;;;5030878;28;20410;-75
2022/09/05 08:29:04;;;;;;;3.93;2.40;;;32.00;70.10;;;;;;5031780;28;20398;-75
2022/09/05 08:32:07;;;;;;;2.90;2.40;;;33.50;60.30;;;;;;5031708;28;20402;-76
2022/09/05 08:34:32;;;;;;;3.43;2.50;;;35.00;54.90;;;;;;5029716;28;20438;-73
2022/09/05 08:36:59;;;;;;;4.20;2.40;;;36.20;51.30;;;;;;5031649;28;20834;-74
2022/09/05 08:39:28;;;;;;;2.83;2.40;;;37.10;50.40;;;;;;5031334;28;20261;-76
2022/09/05 08:42:21;;;;;;;2.57;2.37;;;38.40;47.10;;;;;;5031357;28;20398;-74
2022/09/05 08:45:05;;;;;;;2.70;2.50;;;39.90;42.50;;;;;;5030777;28;21023;-73
2022/09/05 08:47:55;;;;;;;2.70;2.30;;;40.30;39.80;;;;;;5029836;28;20376;-75
2022/09/05 08:50:23;;;;;;;3.53;3.20;;;40.90;39.50;;;;;;5030683;28;20508;-75
2022/09/05 08:53:19;;;;;;;2.27;2.10;;;41.00;38.40;;;;;;5031511;28;20887;-74
2022/09/05 08:55:56;;;;;;;2.43;2.23;;;41.70;38.10;;;;;;5031086;28;20435;-74
2022/09/05 08:58:42;;;;;;;2.30;2.10;;;43.10;36.90;;;;;;5031151;28;20444;-75
2022/09/05 09:01:25;;;;;;;2.77;2.10;;;43.50;35.10;;;;;;5029304;28;20653;-74
2022/09/05 09:04:23;;;;;;;2.80;2.53;;;43.90;33.00;;;;;;5011811;28;20427;-74
2022/09/05 09:06:54;;;;;;;2.20;2.00;;;43.20;33.20;;;;;;5031560;28;20433;-75
2022/09/05 09:09:51;;;;;;;2.63;2.23;;;43.20;33.70;;;;;;5031418;28;20377;-75
2022/09/05 09:12:39;;;;;;;2.47;2.27;;;43.30;32.20;;;;;;5031310;28;20376;-74
2022/09/05 09:15:15;;;;;;;2.80;2.27;;;43.70;32.80;;;;;;5030561;28;20545;-75
2022/09/05 09:17:44;;;;;;;3.30;2.17;;;44.00;31.10;;;;;;5031289;28;20398;-74
2022/09/05 09:20:32;;;;;;;2.30;2.10;;;44.00;30.40;;;;;;5046527;28;20848;-75
2022/09/05 09:23:05;;;;;;;4.10;2.33;;;44.40;30.90;;;;;;5031183;28;20388;-74
2022/09/05 09:26:03;;;;;;;2.47;2.27;;;44.40;30.10;;;;;;5030250;28;20420;-75
2022/09/05 09:28:47;;;;;;;2.33;2.13;;;43.70;30.30;;;;;;5033596;28;20820;-75
2022/09/05 09:31:29;;;;;;;2.70;2.30;;;44.10;30.30;;;;;;5035040;28;20372;-75
2022/09/05 09:34:10;;;;;;;2.13;2.03;;;44.60;29.00;;;;;;5034898;28;20905;-74
2022/09/05 09:36:59;;;;;;;3.80;2.30;;;44.80;29.80;;;;;;5014024;28;21024;-75
2022/09/05 09:39:46;;;;;;;2.47;2.00;;;45.10;29.60;;;;;;5015095;28;20788;-75
2022/09/05 09:42:21;;;;;;;2.73;2.53;;;45.50;29.20;;;;;;5013753;28;20501;-74
2022/09/05 09:45:00;;;;;;;2.10;1.90;;;45.90;27.50;;;;;;5020168;28;20492;-74
2022/09/05 09:47:44;;;;;;;2.23;2.00;;;45.30;27.40;;;;;;5034424;28;20913;-74
2022/09/05 09:50:40;;;;;;;2.13;1.93;;;46.10;29.00;;;;;;5034593;28;20400;-74
2022/09/05 09:53:22;;;;;;;3.40;2.70;;;46.80;28.10;;;;;;5034548;28;20472;-75
2022/09/05 09:56:04;;;;;;;2.30;2.10;;;47.40;28.70;;;;;;5034040;28;20779;-74
2022/09/05 09:58:54;;;;;;;2.07;1.93;;;48.10;27.40;;;;;;5034421;28;20425;-74
2022/09/05 10:01:51;;;;;;;2.57;2.37;;;48.00;27.20;;;;;;5034249;28;20853;-75
2022/09/05 10:04:38;;;;;;;2.70;2.50;;;48.40;26.50;;;;;;5033499;28;20393;-75
2022/09/05 10:07:31;;;;;;;2.03;1.93;;;48.30;26.50;;;;;;5034480;28;20402;-75
2022/09/05 10:10:03;;;;;;;2.30;2.20;;;48.60;25.50;;;;;;5034231;28;20436;-75
2022/09/05 10:12:41;;;;;;;2.50;2.40;;;49.30;26.80;;;;;;5034187;28;20431;-75
2022/09/05 10:15:45;;;;;;;2.37;2.27;;;49.90;25.70;;;;;;5032515;28;20433;-74
2022/09/05 10:18:35;;;;;;;2.60;2.40;;;49.60;25.10;;;;;;5034102;28;20806;-75
2022/09/05 10:21:30;;;;;;;2.80;2.63;;;50.00;24.90;;;;;;5033924;28;20417;-75
2022/09/05 10:24:14;;;;;;;2.73;2.53;;;50.20;24.80;;;;;;5032752;28;20434;-75
2022/09/05 10:26:59;;;;;;;2.73;2.63;;;50.80;24.70;;;;;;5012896;28;20441;-75
2022/09/05 10:30:05;;;;;;;3.30;3.10;;;51.50;24.70;;;;;;5014217;28;20407;-75
2022/09/05 10:33:04;;;;;;;3.30;3.10;;;52.40;24.00;;;;;;5014169;28;20410;-75
2022/09/05 10:35:35;;;;;;;3.20;3.00;;;52.40;22.80;;;;;;5024916;28;20469;-76
2022/09/05 10:38:18;;;;;;;2.60;2.40;;;52.00;23.70;;;;;;5033251;28;20402;-75
2022/09/05 10:40:49;;;;;;;3.00;2.90;;;51.90;23.10;;;;;;5033400;28;20418;-75
2022/09/05 10:43:27;;;;;;;2.27;2.17;;;52.10;23.00;;;;;;5033321;28;20370;-75
2022/09/05 10:45:55;;;;;;;2.87;2.67;;;51.10;22.20;;;;;;5032986;28;20428;-75
2022/09/05 10:48:41;;;;;;;3.07;2.87;;;50.90;22.70;;;;;;5033492;28;20402;-75
2022/09/05 10:51:18;;;;;;;3.37;3.17;;;51.20;23.40;;;;;;5033173;28;20537;-76
2022/09/05 10:54:11;;;;;;;2.90;2.60;;;52.10;22.60;;;;;;5031754;28;20911;-76
2022/09/05 10:56:44;;;;;;;2.73;2.53;;;52.00;22.20;;;;;;5033057;28;20854;-76
2022/09/05 10:59:42;;;;;;;3.23;3.03;;;52.40;21.90;;;;;;5033430;28;20407;-76
2022/09/05 11:02:18;;;;;;;2.50;2.40;;;51.40;21.90;;;;;;5033284;28;20395;-75
2022/09/05 11:05:02;;;;;;;2.30;2.20;;;51.00;22.80;;;;;;5032351;28;20496;-75
2022/09/05 11:07:41;;;;;;;2.90;2.70;;;51.30;23.20;;;;;;5032571;28;20412;-75
2022/09/05 11:10:38;;;;;;;2.63;2.53;;;52.10;23.20;;;;;;5032373;28;20853;-76
2022/09/05 11:13:24;;;;;;;2.90;2.80;;;53.20;21.80;;;;;;5032072;28;20409;-76
2022/09/05 11:15:53;;;;;;;2.97;2.77;;;52.50;20.80;;;;;;5032792;28;20418;-76
2022/09/05 11:18:40;;;;;;;2.93;2.73;;;51.50;21.80;;;;;;5033007;28;20433;-76
2022/09/05 11:21:20;;;;;;;2.43;2.33;;;51.30;22.10;;;;;;5032922;28;20449;-75
2022/09/05 11:23:53;;;;;;;2.87;2.67;;;50.90;21.80;;;;;;5032944;28;20571;-76
2022/09/05 11:26:28;;;;;;;2.60;2.40;;;50.70;22.30;;;;;;5032332;28;20423;-75
2022/09/05 11:29:08;;;;;;;2.30;2.20;;;50.30;23.20;;;;;;5032892;28;20871;-75
2022/09/05 11:32:01;;;;;;;3.00;2.77;;;50.20;22.10;;;;;;5032659;28;20377;-75
2022/09/05 11:34:30;;;;;;;2.80;2.60;;;50.50;22.40;;;;;;5032285;28;20818;-76
2022/09/05 11:37:00;;;;;;;3.93;2.73;;;51.10;22.60;;;;;;5032677;28;20410;-76
2022/09/05 11:39:54;;;;;;;3.00;2.80;;;52.00;21.40;;;;;;5032798;28;20428;-75
2022/09/05 11:42:44;;;;;;;2.40;2.30;;;52.00;21.50;;;;;;5032438;28;20887;-76
2022/09/05 11:45:15;;;;;;;3.40;3.20;;;52.00;22.00;;;;;;5032132;28;20413;-76
2022/09/05 11:47:52;;;;;;;3.17;2.97;;;52.40;21.90;;;;;;5032414;28;20398;-75
2022/09/05 11:50:39;;;;;;;4.50;2.80;;;52.70;21.90;;;;;;5032259;28;20452;-75
2022/09/05 11:53:23;;;;;;;2.57;2.47;;;52.60;21.20;;;;;;5032283;28;20505;-75
2022/09/05 11:55:54;;;;;;;2.67;2.47;;;51.90;21.10;;;;;;5031749;28;20429;-75
2022/09/05 11:58:45;;;;;;;5.07;2.73;;;50.80;21.80;;;;;;5031957;28;20456;-75
2022/09/05 12:01:29;;;;;;;2.40;2.20;;;50.40;22.40;;;;;;5031975;28;20425;-75
2022/09/05 12:04:32;;;;;;;2.23;2.13;;;50.10;21.80;;;;;;5031887;28;20442;-75
2022/09/05 12:07:20;;;;;;;2.47;2.27;;;50.40;22.30;;;;;;5032317;28;20373;-75
2022/09/05 12:09:55;;;;;;;2.90;2.70;;;50.50;22.70;;;;;;5032466;28;20739;-75
2022/09/05 12:12:35;;;;;;;4.20;3.90;;;51.10;22.70;;;;;;5031109;28;20421;-75
2022/09/05 12:15:15;;;;;;;3.53;3.33;;;52.10;22.20;;;;;;5031715;28;20441;-76
2022/09/05 12:18:18;;;;;;;4.23;3.70;;;53.20;22.40;;;;;;5032394;28;20956;-73
2022/09/05 12:20:59;;;;;;;4.57;4.27;;;54.10;21.20;;;;;;5031903;28;20480;-76
2022/09/05 12:23:27;;;;;;;3.83;3.63;;;55.20;21.50;;;;;;5031164;28;20421;-73
2022/09/05 12:26:20;;;;;;;4.50;4.30;;;55.80;21.50;;;;;;5032143;28;20969;-76
2022/09/05 12:28:57;;;;;;;6.10;4.60;;;56.20;20.50;;;;;;5032158;28;20758;-73
2022/09/05 12:31:37;;;;;;;4.90;4.50;;;56.40;20.60;;;;;;5032295;28;20410;-73
2022/09/05 12:34:12;;;;;;;3.80;3.60;;;56.20;20.80;;;;;;5031961;28;20859;-74
2022/09/05 12:36:43;;;;;;;3.83;3.63;;;55.30;20.00;;;;;;5031947;28;20397;-73
2022/09/05 12:39:14;;;;;;;3.70;3.53;;;54.50;20.80;;;;;;5030736;28;20952;-76
2022/09/05 12:41:59;;;;;;;3.80;3.60;;;54.20;20.70;;;;;;5030516;28;20460;-73
2022/09/05 12:44:47;;;;;;;3.73;3.53;;;54.80;21.20;;;;;;5031534;28;20430;-73
2022/09/05 12:47:17;;;;;;;4.23;4.03;;;55.10;21.00;;;;;;5031902;28;20492;-73
2022/09/05 12:49:44;;;;;;;4.53;4.33;;;55.40;20.70;;;;;;5031726;28;20477;-73
2022/09/05 12:52:16;;;;;;;4.00;3.80;;;55.90;20.90;;;;;;5031876;28;20451;-73
2022/09/05 12:54:53;;;;;;;3.97;3.77;;;56.00;20.60;;;;;;5031299;28;20488;-73
2022/09/05 12:57:31;;;;;;;3.90;3.70;;;55.90;20.50;;;;;;5031958;28;20804;-73
2022/09/05 13:00:03;;;;;;;3.57;3.37;;;55.60;19.90;;;;;;5031768;28;20448;-73
2022/09/05 13:02:32;;;;;;;3.40;3.20;;;54.90;20.30;;;;;;5033519;28;20404;-73
2022/09/05 13:05:08;;;;;;;3.50;3.30;;;54.60;20.00;;;;;;5035203;28;20955;-73
2022/09/05 13:07:42;;;;;;;3.83;3.50;;;54.40;21.60;;;;;;5036051;28;20401;-73
2022/09/05 13:10:32;;;;;;;3.90;3.67;;;54.30;20.80;;;;;;5035838;28;20821;-73
2022/09/05 13:13:12;;;;;;;3.37;3.17;;;54.60;20.50;;;;;;5035689;28;20401;-73
2022/09/05 13:15:42;;;;;;;3.50;3.30;;;54.10;20.10;;;;;;5035100;28;20525;-73
2022/09/05 13:18:15;;;;;;;3.33;3.13;;;53.20;20.00;;;;;;5035574;28;20406;-73
2022/09/05 13:20:50;;;;;;;2.63;2.53;;;53.00;20.20;;;;;;5035555;28;20729;-74
2022/09/05 13:23:30;;;;;;;2.73;2.53;;;52.70;19.70;;;;;;5035392;28;20522;-73
2022/09/05 13:26:09;;;;;;;2.67;2.47;;;51.40;20.30;;;;;;5034899;28;20460;-74
2022/09/05 13:28:51;;;;;;;2.57;2.40;;;50.90;20.10;;;;;;5035660;28;20405;-73
2022/09/05 13:31:35;;;;;;;3.53;3.33;;;50.80;21.70;;;;;;5035312;28;20812;-74
2022/09/05 13:34:10;;;;;;;2.63;2.53;;;51.70;20.90;;;;;;5033740;28;20789;-74
2022/09/05 13:36:43;;;;;;;2.57;2.37;;;51.80;21.10;;;;;;5035033;28;20431;-74
2022/09/05 13:39:11;;;;;;;2.60;2.50;;;51.80;20.90;;;;;;5035407;28;20448;-74
2022/09/05 13:41:53;;;;;;;3.00;2.80;;;50.90;20.10;;;;;;5035170;28;20394;-74
2022/09/05 13:44:24;;;;;;;2.00;1.90;;;49.90;21.10;;;;;;5033322;28;20416;-73
2022/09/05 13:47:05;;;;;;;2.70;2.20;;;48.80;21.40;;;;;;5035153;28;20383;-76
2022/09/05 13:49:35;;;;;;;2.60;2.40;;;48.50;22.00;;;;;;5034671;28;20507;-74
2022/09/05 13:52:28;;;;;;;2.90;1.87;;;48.50;22.50;;;;;;5034800;28;20495;-74
2022/09/05 13:55:10;;;;;;;4.10;2.30;;;48.50;21.40;;;;;;5034273;28;20434;-73
2022/09/05 13:58:06;;;;;;;3.03;2.13;;;48.20;21.80;;;;;;5034923;28;20428;-74
2022/09/05 14:00:33;;;;;;;2.80;2.10;;;47.40;21.70;;;;;;5035080;28;20406;-74
2022/09/05 14:03:32;;;;;;;1.80;1.70;;;46.30;22.10;;;;;;5034836;28;20422;-73
2022/09/05 14:06:10;;;;;;;7.73;4.03;;;45.50;23.30;;;;;;5032867;28;20405;-73